sensor_id;sensor_type;location;lat;lon;timestamp;temperature;humidity
16263;DHT22;8239;48.594;8.598;2023-12-20T00:01:36;5.60;99.90
16263;DHT22;8239;48.594;8.598;2023-12-20T00:04:03;5.60;99.90
16263;DHT22;8239;48.594;8.598;2023-12-20T00:06:30;5.60;99.90
16263;DHT22;8239;48.594;8.598;2023-12-20T00:08:57;5.50;99.90
16263;DHT22;8239;48.594;8.598;2023-12-20T00:11:24;5.50;99.90
16263;DHT22;8239;48.594;8.598;2023-12-20T00:13:52;5.50;99.90
16263;DHT22;8239;48.594;8.598;2023-12-20T00:16:19;5.60;99.90
16263;DHT22;8239;48.594;8.598;2023-12-20T00:18:46;5.60;99.90
16263;DHT22;8239;48.594;8.598;2023-12-20T00:21:13;5.60;99.90
16263;DHT22;8239;48.594;8.598;2023-12-20T00:23:40;5.50;99.90
16263;DHT22;8239;48.594;8.598;2023-12-20T00:26:07;5.50;99.90
16263;DHT22;8239;48.594;8.598;2023-12-20T00:28:34;5.40;99.90
16263;DHT22;8239;48.594;8.598;2023-12-20T00:31:02;5.40;99.90
16263;DHT22;8239;48.594;8.598;2023-12-20T00:33:30;5.30;99.90
16263;DHT22;8239;48.594;8.598;2023-12-20T00:35:57;5.30;99.90
16263;DHT22;8239;48.594;8.598;2023-12-20T00:38:24;5.30;99.90
16263;DHT22;8239;48.594;8.598;2023-12-20T00:40:50;5.20;99.90
16263;DHT22;8239;48.594;8.598;2023-12-20T00:43:17;5.20;99.90
16263;DHT22;8239;48.594;8.598;2023-12-20T00:45:45;5.10;99.90
16263;DHT22;8239;48.594;8.598;2023-12-20T00:48:13;5.10;99.90
16263;DHT22;8239;48.594;8.598;2023-12-20T00:50:40;5.00;99.90
16263;DHT22;8239;48.594;8.598;2023-12-20T00:53:07;5.00;99.90
16263;DHT22;8239;48.594;8.598;2023-12-20T00:55:34;4.90;99.90
16263;DHT22;8239;48.594;8.598;2023-12-20T00:58:01;4.90;99.90
16263;DHT22;8239;48.594;8.598;2023-12-20T01:00:26;4.90;99.90
16263;DHT22;8239;48.594;8.598;2023-12-20T01:02:53;4.90;99.90
16263;DHT22;8239;48.594;8.598;2023-12-20T01:05:20;4.80;99.90
16263;DHT22;8239;48.594;8.598;2023-12-20T01:07:48;4.80;99.90
16263;DHT22;8239;48.594;8.598;2023-12-20T01:10:15;4.80;99.90
16263;DHT22;8239;48.594;8.598;2023-12-20T01:12:43;4.70;99.90
16263;DHT22;8239;48.594;8.598;2023-12-20T01:15:10;4.70;99.90
16263;DHT22;8239;48.594;8.598;2023-12-20T01:17:37;4.60;99.90
16263;DHT22;8239;48.594;8.598;2023-12-20T01:20:05;4.60;99.90
16263;DHT22;8239;48.594;8.598;2023-12-20T01:22:33;4.60;99.90
16263;DHT22;8239;48.594;8.598;2023-12-20T01:25:01;4.50;99.90
16263;DHT22;8239;48.594;8.598;2023-12-20T01:27:29;4.50;99.90
16263;DHT22;8239;48.594;8.598;2023-12-20T01:29:56;4.50;99.90
16263;DHT22;8239;48.594;8.598;2023-12-20T01:32:23;4.40;99.90
16263;DHT22;8239;48.594;8.598;2023-12-20T01:34:50;4.40;99.90
16263;DHT22;8239;48.594;8.598;2023-12-20T01:37:17;4.40;99.90
16263;DHT22;8239;48.594;8.598;2023-12-20T01:39:45;4.40;99.90
16263;DHT22;8239;48.594;8.598;2023-12-20T01:42:12;4.30;99.90
16263;DHT22;8239;48.594;8.598;2023-12-20T01:44:39;4.30;99.90
16263;DHT22;8239;48.594;8.598;2023-12-20T01:47:06;4.30;99.90
16263;DHT22;8239;48.594;8.598;2023-12-20T01:49:35;4.30;99.90
16263;DHT22;8239;48.594;8.598;2023-12-20T01:52:03;4.20;99.90
16263;DHT22;8239;48.594;8.598;2023-12-20T01:54:30;4.20;99.90
16263;DHT22;8239;48.594;8.598;2023-12-20T01:56:59;4.20;99.90
16263;DHT22;8239;48.594;8.598;2023-12-20T01:59:26;4.20;99.90
16263;DHT22;8239;48.594;8.598;2023-12-20T02:01:55;4.10;99.90
16263;DHT22;8239;48.594;8.598;2023-12-20T02:04:22;4.10;99.90
16263;DHT22;8239;48.594;8.598;2023-12-20T02:06:52;4.10;99.90
16263;DHT22;8239;48.594;8.598;2023-12-20T02:09:19;4.10;99.90
16263;DHT22;8239;48.594;8.598;2023-12-20T02:11:46;4.10;99.90
16263;DHT22;8239;48.594;8.598;2023-12-20T02:14:14;4.10;99.90
16263;DHT22;8239;48.594;8.598;2023-12-20T02:16:41;4.10;99.90
16263;DHT22;8239;48.594;8.598;2023-12-20T02:19:13;4.10;99.90
16263;DHT22;8239;48.594;8.598;2023-12-20T02:21:41;4.10;99.90
16263;DHT22;8239;48.594;8.598;2023-12-20T02:24:08;4.10;99.90
16263;DHT22;8239;48.594;8.598;2023-12-20T02:26:35;4.10;99.90
16263;DHT22;8239;48.594;8.598;2023-12-20T02:29:02;4.10;99.90
16263;DHT22;8239;48.594;8.598;2023-12-20T02:31:29;4.10;99.90
16263;DHT22;8239;48.594;8.598;2023-12-20T02:33:56;4.10;99.90
16263;DHT22;8239;48.594;8.598;2023-12-20T02:36:23;4.10;99.90
16263;DHT22;8239;48.594;8.598;2023-12-20T02:38:51;4.10;99.90
16263;DHT22;8239;48.594;8.598;2023-12-20T02:41:18;4.10;99.90
16263;DHT22;8239;48.594;8.598;2023-12-20T02:43:45;4.10;99.90
16263;DHT22;8239;48.594;8.598;2023-12-20T02:46:12;4.10;99.90
16263;DHT22;8239;48.594;8.598;2023-12-20T02:48:40;4.10;99.90
16263;DHT22;8239;48.594;8.598;2023-12-20T02:51:07;4.10;99.90
16263;DHT22;8239;48.594;8.598;2023-12-20T02:53:34;4.10;99.90
16263;DHT22;8239;48.594;8.598;2023-12-20T02:56:02;4.10;99.90
16263;DHT22;8239;48.594;8.598;2023-12-20T02:58:29;4.10;99.90
16263;DHT22;8239;48.594;8.598;2023-12-20T03:00:56;4.00;99.90
16263;DHT22;8239;48.594;8.598;2023-12-20T03:03:23;4.00;99.90
16263;DHT22;8239;48.594;8.598;2023-12-20T03:05:50;4.00;99.90
16263;DHT22;8239;48.594;8.598;2023-12-20T03:08:17;4.00;99.90
16263;DHT22;8239;48.594;8.598;2023-12-20T03:10:43;4.00;99.90
16263;DHT22;8239;48.594;8.598;2023-12-20T03:13:12;4.00;99.90
16263;DHT22;8239;48.594;8.598;2023-12-20T03:15:38;4.00;99.90
16263;DHT22;8239;48.594;8.598;2023-12-20T03:18:05;4.00;99.90
16263;DHT22;8239;48.594;8.598;2023-12-20T03:20:32;3.90;99.90
16263;DHT22;8239;48.594;8.598;2023-12-20T03:22:59;3.90;99.90
16263;DHT22;8239;48.594;8.598;2023-12-20T03:25:26;3.90;99.90
16263;DHT22;8239;48.594;8.598;2023-12-20T03:27:53;3.90;99.90
16263;DHT22;8239;48.594;8.598;2023-12-20T03:30:21;3.90;99.90
16263;DHT22;8239;48.594;8.598;2023-12-20T03:32:48;3.80;99.90
16263;DHT22;8239;48.594;8.598;2023-12-20T03:35:16;3.80;99.90
16263;DHT22;8239;48.594;8.598;2023-12-20T03:37:42;3.80;99.90
16263;DHT22;8239;48.594;8.598;2023-12-20T03:40:10;3.80;99.90
16263;DHT22;8239;48.594;8.598;2023-12-20T03:42:37;3.70;99.90
16263;DHT22;8239;48.594;8.598;2023-12-20T03:45:04;3.70;99.90
16263;DHT22;8239;48.594;8.598;2023-12-20T03:47:33;3.70;99.90
16263;DHT22;8239;48.594;8.598;2023-12-20T03:50:00;3.70;99.90
16263;DHT22;8239;48.594;8.598;2023-12-20T03:52:27;3.70;99.90
16263;DHT22;8239;48.594;8.598;2023-12-20T03:54:54;3.70;99.90
16263;DHT22;8239;48.594;8.598;2023-12-20T03:57:21;3.70;99.90
16263;DHT22;8239;48.594;8.598;2023-12-20T03:59:48;3.60;99.90
16263;DHT22;8239;48.594;8.598;2023-12-20T04:02:15;3.60;99.90
16263;DHT22;8239;48.594;8.598;2023-12-20T04:04:44;3.60;99.90
16263;DHT22;8239;48.594;8.598;2023-12-20T04:07:11;3.60;99.90
16263;DHT22;8239;48.594;8.598;2023-12-20T04:09:38;3.60;99.90
16263;DHT22;8239;48.594;8.598;2023-12-20T04:12:07;3.50;99.90
16263;DHT22;8239;48.594;8.598;2023-12-20T04:14:34;3.50;99.90
16263;DHT22;8239;48.594;8.598;2023-12-20T04:17:01;3.50;99.90
16263;DHT22;8239;48.594;8.598;2023-12-20T04:19:28;3.50;99.90
16263;DHT22;8239;48.594;8.598;2023-12-20T04:21:56;3.60;99.90
16263;DHT22;8239;48.594;8.598;2023-12-20T04:24:23;3.50;99.90
16263;DHT22;8239;48.594;8.598;2023-12-20T04:26:50;3.50;99.90
16263;DHT22;8239;48.594;8.598;2023-12-20T04:29:17;3.50;99.90
16263;DHT22;8239;48.594;8.598;2023-12-20T04:31:44;3.50;99.90
16263;DHT22;8239;48.594;8.598;2023-12-20T04:34:11;3.50;99.90
16263;DHT22;8239;48.594;8.598;2023-12-20T04:36:38;3.50;99.90
16263;DHT22;8239;48.594;8.598;2023-12-20T04:39:06;3.50;99.90
16263;DHT22;8239;48.594;8.598;2023-12-20T04:41:33;3.50;99.90
16263;DHT22;8239;48.594;8.598;2023-12-20T04:44:00;3.50;99.90
16263;DHT22;8239;48.594;8.598;2023-12-20T04:46:27;3.50;99.90
16263;DHT22;8239;48.594;8.598;2023-12-20T04:48:54;3.50;99.90
16263;DHT22;8239;48.594;8.598;2023-12-20T04:51:21;3.50;99.90
16263;DHT22;8239;48.594;8.598;2023-12-20T04:53:48;3.50;99.90
16263;DHT22;8239;48.594;8.598;2023-12-20T04:56:17;3.50;99.90
16263;DHT22;8239;48.594;8.598;2023-12-20T04:58:43;3.50;99.90
16263;DHT22;8239;48.594;8.598;2023-12-20T05:01:10;3.50;99.90
16263;DHT22;8239;48.594;8.598;2023-12-20T05:03:38;3.50;99.90
16263;DHT22;8239;48.594;8.598;2023-12-20T05:06:05;3.50;99.90
16263;DHT22;8239;48.594;8.598;2023-12-20T05:08:31;3.50;99.90
16263;DHT22;8239;48.594;8.598;2023-12-20T05:10:58;3.50;99.90
16263;DHT22;8239;48.594;8.598;2023-12-20T05:13:26;3.50;99.90
16263;DHT22;8239;48.594;8.598;2023-12-20T05:15:53;3.50;99.90
16263;DHT22;8239;48.594;8.598;2023-12-20T05:18:20;3.50;99.90
16263;DHT22;8239;48.594;8.598;2023-12-20T05:20:48;3.50;99.90
16263;DHT22;8239;48.594;8.598;2023-12-20T05:23:15;3.50;99.90
16263;DHT22;8239;48.594;8.598;2023-12-20T05:25:43;3.50;99.90
16263;DHT22;8239;48.594;8.598;2023-12-20T05:28:09;3.50;99.90
16263;DHT22;8239;48.594;8.598;2023-12-20T05:30:38;3.50;99.90
16263;DHT22;8239;48.594;8.598;2023-12-20T05:33:04;3.60;99.90
16263;DHT22;8239;48.594;8.598;2023-12-20T05:35:31;3.70;99.90
16263;DHT22;8239;48.594;8.598;2023-12-20T05:37:58;3.80;99.90
16263;DHT22;8239;48.594;8.598;2023-12-20T05:40:25;3.80;99.90
16263;DHT22;8239;48.594;8.598;2023-12-20T05:42:52;3.80;99.90
16263;DHT22;8239;48.594;8.598;2023-12-20T05:45:19;3.80;99.90
16263;DHT22;8239;48.594;8.598;2023-12-20T05:47:48;3.80;99.90
16263;DHT22;8239;48.594;8.598;2023-12-20T05:50:15;3.70;99.90
16263;DHT22;8239;48.594;8.598;2023-12-20T05:52:42;3.70;99.90
16263;DHT22;8239;48.594;8.598;2023-12-20T05:55:09;3.70;99.90
16263;DHT22;8239;48.594;8.598;2023-12-20T05:57:36;3.70;99.90
16263;DHT22;8239;48.594;8.598;2023-12-20T06:00:03;3.70;99.90
16263;DHT22;8239;48.594;8.598;2023-12-20T06:02:30;3.70;99.90
16263;DHT22;8239;48.594;8.598;2023-12-20T06:04:59;3.60;99.90
16263;DHT22;8239;48.594;8.598;2023-12-20T06:07:26;3.60;99.90
16263;DHT22;8239;48.594;8.598;2023-12-20T06:09:53;3.60;99.90
16263;DHT22;8239;48.594;8.598;2023-12-20T06:12:20;3.60;99.90
16263;DHT22;8239;48.594;8.598;2023-12-20T06:14:47;3.50;99.90
16263;DHT22;8239;48.594;8.598;2023-12-20T06:17:14;3.50;99.90
16263;DHT22;8239;48.594;8.598;2023-12-20T06:19:41;3.50;99.90
16263;DHT22;8239;48.594;8.598;2023-12-20T06:22:11;3.50;99.90
16263;DHT22;8239;48.594;8.598;2023-12-20T06:24:38;3.50;99.90
16263;DHT22;8239;48.594;8.598;2023-12-20T06:27:05;3.50;99.90
16263;DHT22;8239;48.594;8.598;2023-12-20T06:29:32;3.50;99.90
16263;DHT22;8239;48.594;8.598;2023-12-20T06:32:00;3.50;99.90
16263;DHT22;8239;48.594;8.598;2023-12-20T06:34:27;3.50;99.90
16263;DHT22;8239;48.594;8.598;2023-12-20T06:36:54;3.50;99.90
16263;DHT22;8239;48.594;8.598;2023-12-20T06:39:24;3.50;99.90
16263;DHT22;8239;48.594;8.598;2023-12-20T06:41:51;3.50;99.90
16263;DHT22;8239;48.594;8.598;2023-12-20T06:44:18;3.50;99.90
16263;DHT22;8239;48.594;8.598;2023-12-20T06:46:45;3.50;99.90
16263;DHT22;8239;48.594;8.598;2023-12-20T06:49:11;3.50;99.90
16263;DHT22;8239;48.594;8.598;2023-12-20T06:51:38;3.50;99.90
16263;DHT22;8239;48.594;8.598;2023-12-20T06:54:05;3.50;99.90
16263;DHT22;8239;48.594;8.598;2023-12-20T06:56:34;3.50;99.90
16263;DHT22;8239;48.594;8.598;2023-12-20T06:59:00;3.50;99.90
16263;DHT22;8239;48.594;8.598;2023-12-20T07:01:27;3.60;99.90
16263;DHT22;8239;48.594;8.598;2023-12-20T07:03:54;3.60;99.90
16263;DHT22;8239;48.594;8.598;2023-12-20T07:06:21;3.60;99.90
16263;DHT22;8239;48.594;8.598;2023-12-20T07:08:48;3.60;99.90
16263;DHT22;8239;48.594;8.598;2023-12-20T07:11:15;3.60;99.90
16263;DHT22;8239;48.594;8.598;2023-12-20T07:13:43;3.60;99.90
16263;DHT22;8239;48.594;8.598;2023-12-20T07:16:10;3.60;99.90
16263;DHT22;8239;48.594;8.598;2023-12-20T07:18:37;3.60;99.90
16263;DHT22;8239;48.594;8.598;2023-12-20T07:21:04;3.60;99.90
16263;DHT22;8239;48.594;8.598;2023-12-20T07:23:33;3.60;99.90
16263;DHT22;8239;48.594;8.598;2023-12-20T07:26:00;3.60;99.90
16263;DHT22;8239;48.594;8.598;2023-12-20T07:28:27;3.60;99.90
16263;DHT22;8239;48.594;8.598;2023-12-20T07:30:55;3.60;99.90
16263;DHT22;8239;48.594;8.598;2023-12-20T07:33:22;3.60;99.90
16263;DHT22;8239;48.594;8.598;2023-12-20T07:35:49;3.60;99.90
16263;DHT22;8239;48.594;8.598;2023-12-20T07:38:17;3.60;99.90
16263;DHT22;8239;48.594;8.598;2023-12-20T07:40:44;3.70;99.90
16263;DHT22;8239;48.594;8.598;2023-12-20T07:43:11;3.70;99.90
16263;DHT22;8239;48.594;8.598;2023-12-20T07:45:37;3.70;99.90
16263;DHT22;8239;48.594;8.598;2023-12-20T07:48:07;3.70;99.90
16263;DHT22;8239;48.594;8.598;2023-12-20T07:50:34;3.70;99.90
16263;DHT22;8239;48.594;8.598;2023-12-20T07:53:02;3.70;99.90
16263;DHT22;8239;48.594;8.598;2023-12-20T07:55:29;3.80;99.90
16263;DHT22;8239;48.594;8.598;2023-12-20T07:57:57;3.80;99.90
16263;DHT22;8239;48.594;8.598;2023-12-20T08:00:24;3.80;99.90
16263;DHT22;8239;48.594;8.598;2023-12-20T08:02:51;3.80;99.90
16263;DHT22;8239;48.594;8.598;2023-12-20T08:05:19;3.80;99.90
16263;DHT22;8239;48.594;8.598;2023-12-20T08:07:46;3.80;99.90
16263;DHT22;8239;48.594;8.598;2023-12-20T08:10:13;3.90;99.90
16263;DHT22;8239;48.594;8.598;2023-12-20T08:12:40;3.90;99.90
16263;DHT22;8239;48.594;8.598;2023-12-20T08:15:07;4.00;99.90
16263;DHT22;8239;48.594;8.598;2023-12-20T08:17:34;4.00;99.90
16263;DHT22;8239;48.594;8.598;2023-12-20T08:20:05;4.10;99.90
16263;DHT22;8239;48.594;8.598;2023-12-20T08:22:33;4.20;99.90
16263;DHT22;8239;48.594;8.598;2023-12-20T08:25:00;4.20;99.90
16263;DHT22;8239;48.594;8.598;2023-12-20T08:27:27;4.30;99.90
16263;DHT22;8239;48.594;8.598;2023-12-20T08:29:54;4.40;99.90
16263;DHT22;8239;48.594;8.598;2023-12-20T08:32:21;4.40;99.90
16263;DHT22;8239;48.594;8.598;2023-12-20T08:34:48;4.40;99.90
16263;DHT22;8239;48.594;8.598;2023-12-20T08:37:15;4.40;99.90
16263;DHT22;8239;48.594;8.598;2023-12-20T08:39:43;4.50;99.90
16263;DHT22;8239;48.594;8.598;2023-12-20T08:42:10;4.50;99.90
16263;DHT22;8239;48.594;8.598;2023-12-20T08:44:37;4.60;99.90
16263;DHT22;8239;48.594;8.598;2023-12-20T08:47:04;4.70;99.90
16263;DHT22;8239;48.594;8.598;2023-12-20T08:49:31;4.80;99.90
16263;DHT22;8239;48.594;8.598;2023-12-20T08:52:01;4.90;99.90
16263;DHT22;8239;48.594;8.598;2023-12-20T08:54:28;5.10;99.90
16263;DHT22;8239;48.594;8.598;2023-12-20T08:56:58;5.30;99.90
16263;DHT22;8239;48.594;8.598;2023-12-20T08:59:25;5.60;99.90
16263;DHT22;8239;48.594;8.598;2023-12-20T09:01:52;6.20;99.90
16263;DHT22;8239;48.594;8.598;2023-12-20T09:04:20;7.30;99.90
16263;DHT22;8239;48.594;8.598;2023-12-20T09:06:47;8.80;99.90
16263;DHT22;8239;48.594;8.598;2023-12-20T09:09:14;10.70;99.90
16263;DHT22;8239;48.594;8.598;2023-12-20T09:11:41;12.30;93.30
16263;DHT22;8239;48.594;8.598;2023-12-20T09:14:10;13.20;82.30
16263;DHT22;8239;48.594;8.598;2023-12-20T09:16:37;14.10;75.00
16263;DHT22;8239;48.594;8.598;2023-12-20T09:19:03;15.10;71.60
16263;DHT22;8239;48.594;8.598;2023-12-20T09:21:30;16.00;65.50
16263;DHT22;8239;48.594;8.598;2023-12-20T09:23:57;16.40;60.30
16263;DHT22;8239;48.594;8.598;2023-12-20T09:26:24;16.70;56.30
16263;DHT22;8239;48.594;8.598;2023-12-20T09:28:51;16.90;56.50
16263;DHT22;8239;48.594;8.598;2023-12-20T09:31:19;17.40;56.10
16263;DHT22;8239;48.594;8.598;2023-12-20T09:33:46;17.80;54.40
16263;DHT22;8239;48.594;8.598;2023-12-20T09:36:13;18.40;53.20
16263;DHT22;8239;48.594;8.598;2023-12-20T09:38:40;18.30;49.40
16263;DHT22;8239;48.594;8.598;2023-12-20T09:41:07;17.30;48.40
16263;DHT22;8239;48.594;8.598;2023-12-20T09:43:37;16.20;50.40
16263;DHT22;8239;48.594;8.598;2023-12-20T09:46:06;15.30;51.30
16263;DHT22;8239;48.594;8.598;2023-12-20T09:48:36;14.30;53.40
16263;DHT22;8239;48.594;8.598;2023-12-20T09:51:04;13.60;55.90
16263;DHT22;8239;48.594;8.598;2023-12-20T09:53:33;13.80;57.70
16263;DHT22;8239;48.594;8.598;2023-12-20T09:56:04;14.20;56.30
16263;DHT22;8239;48.594;8.598;2023-12-20T09:58:32;14.40;55.00
16263;DHT22;8239;48.594;8.598;2023-12-20T10:01:00;14.00;54.60
16263;DHT22;8239;48.594;8.598;2023-12-20T10:03:29;14.00;56.40
16263;DHT22;8239;48.594;8.598;2023-12-20T10:05:59;14.40;55.40
16263;DHT22;8239;48.594;8.598;2023-12-20T10:08:27;14.40;54.00
16263;DHT22;8239;48.594;8.598;2023-12-20T10:10:55;14.60;55.10
16263;DHT22;8239;48.594;8.598;2023-12-20T10:13:28;15.20;54.00
16263;DHT22;8239;48.594;8.598;2023-12-20T10:15:55;16.10;53.20
16263;DHT22;8239;48.594;8.598;2023-12-20T10:18:23;17.10;50.70
16263;DHT22;8239;48.594;8.598;2023-12-20T10:20:50;17.80;48.70
16263;DHT22;8239;48.594;8.598;2023-12-20T10:23:18;18.50;47.40
16263;DHT22;8239;48.594;8.598;2023-12-20T10:25:56;19.20;46.20
16263;DHT22;8239;48.594;8.598;2023-12-20T10:28:23;19.70;44.80
16263;DHT22;8239;48.594;8.598;2023-12-20T10:30:53;19.80;43.50
16263;DHT22;8239;48.594;8.598;2023-12-20T10:33:24;19.80;43.60
16263;DHT22;8239;48.594;8.598;2023-12-20T10:35:52;19.20;42.60
16263;DHT22;8239;48.594;8.598;2023-12-20T10:38:21;18.90;43.90
16263;DHT22;8239;48.594;8.598;2023-12-20T10:40:49;18.40;43.70
16263;DHT22;8239;48.594;8.598;2023-12-20T10:43:19;18.10;44.50
16263;DHT22;8239;48.594;8.598;2023-12-20T10:45:46;17.20;43.30
16263;DHT22;8239;48.594;8.598;2023-12-20T10:48:13;16.80;46.00
16263;DHT22;8239;48.594;8.598;2023-12-20T10:50:41;16.50;46.90
16263;DHT22;8239;48.594;8.598;2023-12-20T10:53:08;16.90;47.60
16263;DHT22;8239;48.594;8.598;2023-12-20T10:55:36;16.90;45.20
16263;DHT22;8239;48.594;8.598;2023-12-20T10:58:07;16.40;46.00
16263;DHT22;8239;48.594;8.598;2023-12-20T11:00:39;15.10;46.70
16263;DHT22;8239;48.594;8.598;2023-12-20T11:03:08;13.50;48.80
16263;DHT22;8239;48.594;8.598;2023-12-20T11:05:40;12.50;52.10
16263;DHT22;8239;48.594;8.598;2023-12-20T11:08:14;11.80;54.60
16263;DHT22;8239;48.594;8.598;2023-12-20T11:10:49;11.10;56.20
16263;DHT22;8239;48.594;8.598;2023-12-20T11:13:22;10.00;56.50
16263;DHT22;8239;48.594;8.598;2023-12-20T11:15:50;9.70;60.70
16263;DHT22;8239;48.594;8.598;2023-12-20T11:18:17;9.10;62.50
16263;DHT22;8239;48.594;8.598;2023-12-20T11:20:44;9.00;62.80
16263;DHT22;8239;48.594;8.598;2023-12-20T11:23:11;9.10;63.10
16263;DHT22;8239;48.594;8.598;2023-12-20T11:25:51;9.30;62.80
16263;DHT22;8239;48.594;8.598;2023-12-20T11:28:21;9.20;62.30
16263;DHT22;8239;48.594;8.598;2023-12-20T11:30:52;8.80;63.60
16263;DHT22;8239;48.594;8.598;2023-12-20T11:33:22;8.00;63.60
16263;DHT22;8239;48.594;8.598;2023-12-20T11:35:50;7.40;66.50
16263;DHT22;8239;48.594;8.598;2023-12-20T11:38:17;6.90;69.40
16263;DHT22;8239;48.594;8.598;2023-12-20T11:40:49;6.40;71.20
16263;DHT22;8239;48.594;8.598;2023-12-20T11:43:32;5.90;73.00
16263;DHT22;8239;48.594;8.598;2023-12-20T11:46:03;5.70;75.40
16263;DHT22;8239;48.594;8.598;2023-12-20T11:48:31;5.40;75.40
16263;DHT22;8239;48.594;8.598;2023-12-20T11:50:58;5.20;76.80
16263;DHT22;8239;48.594;8.598;2023-12-20T11:53:28;5.20;79.20
16263;DHT22;8239;48.594;8.598;2023-12-20T11:55:57;5.10;78.80
16263;DHT22;8239;48.594;8.598;2023-12-20T11:58:25;5.00;79.20
16263;DHT22;8239;48.594;8.598;2023-12-20T12:00:52;5.00;79.50
16263;DHT22;8239;48.594;8.598;2023-12-20T12:03:19;5.20;80.70
16263;DHT22;8239;48.594;8.598;2023-12-20T12:05:47;5.50;81.60
16263;DHT22;8239;48.594;8.598;2023-12-20T12:08:14;5.80;80.90
16263;DHT22;8239;48.594;8.598;2023-12-20T12:10:41;6.00;80.00
16263;DHT22;8239;48.594;8.598;2023-12-20T12:13:09;6.10;79.80
16263;DHT22;8239;48.594;8.598;2023-12-20T12:15:37;6.10;78.90
16263;DHT22;8239;48.594;8.598;2023-12-20T12:18:05;6.00;78.80
16263;DHT22;8239;48.594;8.598;2023-12-20T12:20:32;5.90;79.20
16263;DHT22;8239;48.594;8.598;2023-12-20T12:22:59;5.90;80.30
16263;DHT22;8239;48.594;8.598;2023-12-20T12:25:26;5.90;80.20
16263;DHT22;8239;48.594;8.598;2023-12-20T12:27:55;5.80;80.50
16263;DHT22;8239;48.594;8.598;2023-12-20T12:30:24;5.60;81.00
16263;DHT22;8239;48.594;8.598;2023-12-20T12:32:51;5.60;81.50
16263;DHT22;8239;48.594;8.598;2023-12-20T12:35:18;5.50;81.70
16263;DHT22;8239;48.594;8.598;2023-12-20T12:37:45;5.40;82.80
16263;DHT22;8239;48.594;8.598;2023-12-20T12:40:14;5.20;82.70
16263;DHT22;8239;48.594;8.598;2023-12-20T12:42:42;5.10;84.30
16263;DHT22;8239;48.594;8.598;2023-12-20T12:45:09;4.90;85.20
16263;DHT22;8239;48.594;8.598;2023-12-20T12:47:39;4.80;86.40
16263;DHT22;8239;48.594;8.598;2023-12-20T12:50:06;4.80;88.80
16263;DHT22;8239;48.594;8.598;2023-12-20T12:52:34;5.60;90.20
16263;DHT22;8239;48.594;8.598;2023-12-20T12:55:01;6.40;85.40
16263;DHT22;8239;48.594;8.598;2023-12-20T12:57:29;7.10;83.60
16263;DHT22;8239;48.594;8.598;2023-12-20T12:59:56;8.00;80.60
16263;DHT22;8239;48.594;8.598;2023-12-20T13:02:24;8.70;74.60
16263;DHT22;8239;48.594;8.598;2023-12-20T13:04:52;9.60;73.10
16263;DHT22;8239;48.594;8.598;2023-12-20T13:07:19;10.10;67.10
16263;DHT22;8239;48.594;8.598;2023-12-20T13:09:46;10.90;65.90
16263;DHT22;8239;48.594;8.598;2023-12-20T13:12:13;11.60;63.70
16263;DHT22;8239;48.594;8.598;2023-12-20T13:14:40;11.40;59.30
16263;DHT22;8239;48.594;8.598;2023-12-20T13:17:07;10.70;59.00
16263;DHT22;8239;48.594;8.598;2023-12-20T13:19:34;9.70;62.60
16263;DHT22;8239;48.594;8.598;2023-12-20T13:22:02;9.10;65.60
16263;DHT22;8239;48.594;8.598;2023-12-20T13:24:29;8.50;67.50
16263;DHT22;8239;48.594;8.598;2023-12-20T13:26:57;8.00;68.50
16263;DHT22;8239;48.594;8.598;2023-12-20T13:29:25;7.50;70.10
16263;DHT22;8239;48.594;8.598;2023-12-20T13:31:52;7.00;72.10
16263;DHT22;8239;48.594;8.598;2023-12-20T13:34:19;6.50;74.30
16263;DHT22;8239;48.594;8.598;2023-12-20T13:36:47;6.20;75.70
16263;DHT22;8239;48.594;8.598;2023-12-20T13:39:17;5.90;78.30
16263;DHT22;8239;48.594;8.598;2023-12-20T13:41:44;5.60;80.40
16263;DHT22;8239;48.594;8.598;2023-12-20T13:44:11;5.20;83.00
16263;DHT22;8239;48.594;8.598;2023-12-20T13:46:39;4.90;86.70
16263;DHT22;8239;48.594;8.598;2023-12-20T13:49:06;4.60;89.90
16263;DHT22;8239;48.594;8.598;2023-12-20T13:51:33;4.40;91.00
16263;DHT22;8239;48.594;8.598;2023-12-20T13:54:01;4.20;92.40
16263;DHT22;8239;48.594;8.598;2023-12-20T13:56:29;4.10;93.40
16263;DHT22;8239;48.594;8.598;2023-12-20T13:58:56;3.90;94.80
16263;DHT22;8239;48.594;8.598;2023-12-20T14:01:23;3.90;95.60
16263;DHT22;8239;48.594;8.598;2023-12-20T14:03:50;3.80;97.00
16263;DHT22;8239;48.594;8.598;2023-12-20T14:06:17;3.70;97.90
16263;DHT22;8239;48.594;8.598;2023-12-20T14:08:44;3.70;98.30
16263;DHT22;8239;48.594;8.598;2023-12-20T14:11:11;3.60;99.40
16263;DHT22;8239;48.594;8.598;2023-12-20T14:13:42;3.60;99.90
16263;DHT22;8239;48.594;8.598;2023-12-20T14:16:10;3.60;99.90
16263;DHT22;8239;48.594;8.598;2023-12-20T14:18:38;3.60;99.90
16263;DHT22;8239;48.594;8.598;2023-12-20T14:21:05;3.50;99.90
16263;DHT22;8239;48.594;8.598;2023-12-20T14:23:33;3.50;99.90
16263;DHT22;8239;48.594;8.598;2023-12-20T14:26:00;3.40;99.90
16263;DHT22;8239;48.594;8.598;2023-12-20T14:28:27;3.40;99.90
16263;DHT22;8239;48.594;8.598;2023-12-20T14:30:56;3.30;99.90
16263;DHT22;8239;48.594;8.598;2023-12-20T14:33:23;3.30;99.90
16263;DHT22;8239;48.594;8.598;2023-12-20T14:35:51;3.20;99.90
16263;DHT22;8239;48.594;8.598;2023-12-20T14:38:18;3.20;99.90
16263;DHT22;8239;48.594;8.598;2023-12-20T14:40:45;3.20;99.90
16263;DHT22;8239;48.594;8.598;2023-12-20T14:43:12;3.20;99.90
16263;DHT22;8239;48.594;8.598;2023-12-20T14:45:39;3.10;99.90
16263;DHT22;8239;48.594;8.598;2023-12-20T14:48:08;3.10;99.90
16263;DHT22;8239;48.594;8.598;2023-12-20T14:50:34;3.10;99.90
16263;DHT22;8239;48.594;8.598;2023-12-20T14:53:02;3.00;99.90
16263;DHT22;8239;48.594;8.598;2023-12-20T14:55:29;3.00;99.90
16263;DHT22;8239;48.594;8.598;2023-12-20T14:57:56;2.90;99.90
16263;DHT22;8239;48.594;8.598;2023-12-20T15:00:23;2.90;99.90
16263;DHT22;8239;48.594;8.598;2023-12-20T15:02:50;2.90;99.90
16263;DHT22;8239;48.594;8.598;2023-12-20T15:05:18;2.80;99.90
16263;DHT22;8239;48.594;8.598;2023-12-20T15:07:46;2.80;99.90
16263;DHT22;8239;48.594;8.598;2023-12-20T15:10:14;2.80;99.90
16263;DHT22;8239;48.594;8.598;2023-12-20T15:12:42;2.80;99.90
16263;DHT22;8239;48.594;8.598;2023-12-20T15:15:10;2.80;99.90
16263;DHT22;8239;48.594;8.598;2023-12-20T15:17:37;2.70;99.90
16263;DHT22;8239;48.594;8.598;2023-12-20T15:20:05;2.70;99.90
16263;DHT22;8239;48.594;8.598;2023-12-20T15:22:34;2.70;99.90
16263;DHT22;8239;48.594;8.598;2023-12-20T15:25:02;2.70;99.90
16263;DHT22;8239;48.594;8.598;2023-12-20T15:27:31;2.70;99.90
16263;DHT22;8239;48.594;8.598;2023-12-20T15:30:01;2.60;99.90
16263;DHT22;8239;48.594;8.598;2023-12-20T15:32:28;2.60;99.90
16263;DHT22;8239;48.594;8.598;2023-12-20T15:34:54;2.60;99.90
16263;DHT22;8239;48.594;8.598;2023-12-20T15:37:21;2.60;99.90
16263;DHT22;8239;48.594;8.598;2023-12-20T15:39:49;2.50;99.90
16263;DHT22;8239;48.594;8.598;2023-12-20T15:42:16;2.50;99.90
16263;DHT22;8239;48.594;8.598;2023-12-20T15:44:43;2.60;99.90
16263;DHT22;8239;48.594;8.598;2023-12-20T15:47:10;2.50;99.90
16263;DHT22;8239;48.594;8.598;2023-12-20T15:49:37;2.50;99.90
16263;DHT22;8239;48.594;8.598;2023-12-20T15:52:05;2.50;99.90
16263;DHT22;8239;48.594;8.598;2023-12-20T15:54:32;2.50;99.90
16263;DHT22;8239;48.594;8.598;2023-12-20T15:57:00;2.50;99.90
16263;DHT22;8239;48.594;8.598;2023-12-20T15:59:27;2.50;99.90
16263;DHT22;8239;48.594;8.598;2023-12-20T16:01:54;2.50;99.90